createdAt,value
2019-04-21T00:02:27.678Z,51.42
2019-04-21T00:05:12.950Z,51.54
2019-04-21T00:07:43.485Z,51.79
2019-04-21T00:10:28.447Z,52.01
2019-04-21T00:12:54.771Z,51.96
2019-04-21T00:15:21.355Z,52.10
2019-04-21T00:17:53.910Z,52.81
2019-04-21T00:20:31.041Z,52.62
2019-04-21T00:23:13.096Z,52.61
2019-04-21T00:25:42.902Z,53.00
2019-04-21T00:28:34.696Z,53.35
2019-04-21T00:30:56.968Z,53.89
2019-04-21T00:33:17.862Z,53.91
2019-04-21T00:35:54.982Z,53.60
2019-04-21T00:38:49.546Z,53.86
2019-04-21T00:41:23.899Z,54.51
2019-04-21T00:43:44.758Z,54.21
2019-04-21T00:46:12.592Z,54.63
2019-04-21T00:48:57.418Z,54.90
2019-04-21T00:51:40.251Z,55.18
2019-04-21T00:54:15.197Z,54.91
2019-04-21T00:56:42.068Z,55.27
2019-04-21T00:59:13.971Z,55.61
2019-04-21T01:01:50.785Z,55.72
2019-04-21T01:04:23.484Z,56.09
2019-04-21T01:06:55.909Z,56.46
2019-04-21T01:09:27.633Z,56.53
2019-04-21T01:12:03.765Z,56.76
2019-04-21T01:14:40.741Z,57.08
2019-04-21T01:17:17.851Z,57.08
2019-04-21T01:19:48.309Z,57.13
2019-04-21T01:22:00.894Z,57.17
2019-04-21T01:24:37.598Z,57.05
2019-04-21T01:27:19.441Z,57.06
2019-04-21T01:29:59.824Z,57.08
2019-04-21T01:32:35.672Z,57.55
2019-04-21T01:35:10.061Z,58.04
2019-04-21T01:37:50.886Z,57.67
2019-04-21T01:40:23.759Z,57.62
2019-04-21T01:42:52.849Z,57.58
2019-04-21T01:45:22.463Z,57.71
2019-04-21T01:47:56.040Z,58.06
2019-04-21T01:50:30.067Z,58.14
2019-04-21T01:53:21.899Z,58.72
2019-04-21T01:56:07.858Z,58.67
2019-04-21T01:58:34.238Z,59.03
2019-04-21T02:01:10.808Z,59.06
2019-04-21T02:03:56.944Z,58.89
2019-04-21T02:06:29.238Z,59.22
2019-04-21T02:08:57.751Z,59.20
2019-04-21T02:11:37.577Z,59.31
2019-04-21T02:14:12.865Z,59.94
2019-04-21T02:16:40.567Z,60.04
2019-04-21T02:19:09.124Z,59.97
2019-04-21T02:21:39.352Z,59.85
2019-04-21T02:24:31.575Z,59.64
2019-04-21T02:26:59.215Z,60.02
2019-04-21T02:29:34.407Z,60.04
2019-04-21T02:34:57.492Z,60.22
2019-04-21T02:37:40.341Z,60.56
2019-04-21T02:42:31.502Z,60.03
2019-04-21T02:47:50.912Z,60.03
2019-04-21T02:52:43.970Z,60.03
2019-04-21T02:55:17.750Z,60.05
2019-04-21T02:57:59.123Z,59.60
2019-04-21T03:00:42.793Z,60.31
2019-04-21T03:08:42.694Z,60.50
2019-04-21T03:11:09.346Z,60.41
2019-04-21T03:13:54.852Z,60.57
2019-04-21T03:16:25.959Z,60.43
2019-04-21T03:19:01.937Z,60.51
2019-04-21T03:21:25.919Z,60.68
2019-04-21T03:23:58.362Z,60.87
2019-04-21T03:26:44.947Z,60.76
2019-04-21T03:29:17.540Z,60.86
2019-04-21T03:32:05.706Z,60.92
2019-04-21T03:39:31.261Z,61.49
2019-04-21T03:42:10.986Z,60.96
2019-04-21T03:47:08.328Z,60.54
2019-04-21T04:01:00.591Z,61.45
2019-04-21T04:04:00.854Z,61.50
2019-04-21T04:06:38.885Z,61.61
2019-04-21T04:09:19.548Z,61.32
2019-04-21T04:22:15.404Z,61.08
2019-04-21T04:24:57.560Z,61.45
2019-04-21T04:27:14.818Z,61.07
2019-04-21T04:30:08.034Z,60.87
2019-04-21T04:32:23.251Z,60.61
2019-04-21T04:37:32.838Z,60.81
2019-04-21T04:45:38.494Z,60.70
2019-04-21T04:48:10.999Z,60.71
2019-04-21T04:50:50.112Z,60.32
2019-04-21T04:53:28.668Z,60.45
2019-04-21T04:58:29.272Z,60.39
2019-04-21T05:01:06.215Z,60.42
2019-04-21T05:03:44.336Z,60.47
2019-04-21T05:11:40.228Z,60.67
2019-04-21T05:14:13.246Z,60.68
2019-04-21T05:19:22.876Z,60.27
2019-04-21T05:21:40.434Z,60.09
2019-04-21T05:24:07.795Z,59.69
2019-04-21T05:26:46.118Z,58.58
2019-04-21T05:29:10.995Z,57.19
2019-04-21T05:32:03.199Z,55.38
2019-04-21T05:34:38.701Z,54.05
2019-04-21T05:37:43.686Z,52.13
2019-04-21T05:40:15.718Z,50.25
2019-04-21T05:42:49.554Z,49.18
2019-04-21T05:45:33.533Z,49.34
2019-04-21T05:48:28.362Z,48.17
2019-04-21T05:50:56.585Z,46.67
2019-04-21T05:53:36.108Z,45.17
2019-04-21T05:56:12.769Z,44.48
2019-04-21T05:58:46.251Z,42.84
2019-04-21T06:01:23.796Z,42.12
2019-04-21T06:06:36.800Z,40.24
2019-04-21T06:08:59.565Z,39.47
2019-04-21T06:11:36.028Z,38.83
2019-04-21T06:14:20.335Z,37.88
2019-04-21T06:16:54.604Z,36.68
2019-04-21T06:19:29.397Z,36.00
2019-04-21T06:21:50.877Z,34.99
2019-04-21T06:24:29.870Z,34.53
2019-04-21T06:27:09.492Z,33.84
2019-04-21T06:29:36.469Z,33.84
2019-04-21T06:35:01.076Z,32.98
2019-04-21T06:37:39.677Z,32.90
2019-04-21T06:42:33.711Z,32.46
2019-04-21T06:45:31.808Z,31.57
2019-04-21T06:47:54.957Z,31.01
2019-04-21T06:50:18.588Z,30.66
2019-04-21T06:55:26.655Z,29.57
2019-04-21T06:57:58.244Z,30.06
2019-04-21T07:00:30.474Z,29.69
2019-04-21T07:03:17.100Z,29.42
2019-04-21T07:05:41.308Z,29.67
2019-04-21T07:08:30.817Z,28.53
2019-04-21T07:10:43.515Z,28.81
2019-04-21T07:13:23.743Z,27.49
2019-04-21T07:16:02.873Z,27.57
2019-04-21T07:18:34.703Z,26.78
2019-04-21T07:23:41.932Z,25.21
2019-04-21T07:26:11.094Z,25.25
2019-04-21T07:28:49.746Z,24.89
2019-04-21T07:31:22.774Z,24.33
2019-04-21T07:36:38.135Z,23.51
2019-04-21T07:38:57.262Z,23.26
2019-04-21T07:41:25.352Z,22.88
2019-04-21T07:44:00.378Z,22.92
2019-04-21T07:46:37.240Z,23.25
2019-04-21T07:49:32.890Z,23.42
2019-04-21T07:52:28.247Z,23.33
2019-04-21T07:55:12.925Z,23.58
2019-04-21T07:57:32.004Z,23.97
2019-04-21T08:02:47.963Z,23.93
2019-04-21T08:05:20.586Z,23.48
2019-04-21T08:07:52.171Z,22.50
2019-04-21T08:10:21.282Z,21.90
2019-04-21T08:12:54.423Z,22.33
2019-04-21T08:15:50.997Z,22.18
2019-04-21T08:18:07.524Z,22.00
2019-04-21T08:20:46.281Z,21.82
2019-04-21T08:23:22.176Z,21.32
2019-04-21T08:26:07.859Z,20.91
2019-04-21T08:28:28.958Z,20.63
2019-04-21T08:30:54.380Z,20.80
2019-04-21T08:36:25.023Z,21.24
2019-04-21T08:38:42.012Z,20.67
2019-04-21T08:41:15.500Z,20.32
2019-04-21T08:43:51.385Z,19.48
2019-04-21T08:46:28.344Z,17.95
2019-04-21T08:48:55.413Z,18.43
2019-04-21T08:51:34.079Z,18.26
2019-04-21T08:54:09.404Z,18.09
2019-04-21T08:57:06.156Z,18.88
2019-04-21T08:59:43.528Z,18.37
2019-04-21T09:02:29.432Z,18.28
2019-04-21T09:05:01.491Z,18.24
2019-04-21T09:10:06.860Z,17.81
2019-04-21T09:12:44.861Z,16.99
2019-04-21T09:15:13.866Z,16.24
2019-04-21T09:17:41.130Z,16.11
2019-04-21T09:20:25.964Z,16.05
2019-04-21T09:22:54.259Z,15.88
2019-04-21T09:25:38.639Z,16.61
2019-04-21T09:28:07.029Z,16.98
2019-04-21T09:30:21.938Z,16.92
2019-04-21T09:32:56.869Z,17.03
2019-04-21T09:35:29.164Z,16.59
2019-04-21T09:38:16.203Z,17.21
2019-04-21T09:40:45.434Z,17.04
2019-04-21T09:43:25.825Z,15.85
2019-04-21T09:45:47.932Z,16.51
2019-04-21T09:48:22.525Z,15.92
2019-04-21T09:50:55.138Z,16.06
2019-04-21T09:53:33.250Z,16.31
2019-04-21T09:56:04.980Z,15.47
2019-04-21T09:58:40.722Z,16.25
2019-04-21T10:01:18.532Z,16.38
2019-04-21T10:03:48.245Z,16.50
2019-04-21T10:06:18.997Z,16.69
2019-04-21T10:08:58.364Z,15.28
2019-04-21T10:11:26.732Z,15.53
2019-04-21T10:13:58.970Z,15.95
2019-04-21T10:17:00.316Z,15.13
2019-04-21T10:19:33.923Z,15.67
2019-04-21T10:22:06.071Z,16.32
2019-04-21T10:24:38.397Z,15.79
2019-04-21T10:27:12.429Z,15.76
2019-04-21T10:29:45.323Z,16.26
2019-04-21T10:32:21.603Z,16.11
2019-04-21T10:34:52.846Z,16.77
2019-04-21T10:37:40.137Z,16.06
2019-04-21T10:40:00.124Z,16.38
2019-04-21T10:42:38.280Z,16.26
2019-04-21T10:45:10.979Z,16.41
2019-04-21T10:47:43.118Z,16.06
2019-04-21T10:50:16.306Z,16.16
2019-04-21T10:53:00.981Z,16.15
2019-04-21T10:55:49.954Z,16.24
2019-04-21T10:58:22.556Z,16.73
2019-04-21T11:01:14.485Z,17.52
2019-04-21T11:03:58.380Z,16.74
2019-04-21T11:06:31.037Z,16.51
2019-04-21T11:09:07.309Z,16.13
2019-04-21T11:11:43.148Z,16.10
2019-04-21T11:14:15.423Z,16.12
2019-04-21T11:16:49.317Z,16.09
2019-04-21T11:19:22.140Z,16.14
2019-04-21T11:21:54.648Z,16.67
2019-04-21T11:24:27.102Z,16.45
2019-04-21T11:27:00.094Z,16.00
2019-04-21T11:29:33.172Z,15.94
2019-04-21T11:32:05.387Z,16.17
2019-04-21T11:34:37.382Z,15.61
2019-04-21T11:37:12.330Z,15.83
2019-04-21T11:39:51.951Z,16.02
2019-04-21T11:42:30.845Z,16.34
2019-04-21T11:45:04.128Z,15.97
2019-04-21T11:47:40.658Z,15.58
2019-04-21T11:50:13.016Z,15.90
2019-04-21T11:52:45.190Z,16.37
2019-04-21T11:55:18.662Z,16.20
2019-04-21T11:57:52.826Z,15.67
2019-04-21T12:00:24.695Z,15.79
2019-04-21T12:02:57.614Z,16.15
2019-04-21T12:05:29.847Z,16.22
2019-04-21T12:08:02.062Z,16.74
2019-04-21T12:10:35.238Z,15.68
2019-04-21T12:13:07.558Z,15.68
2019-04-21T12:15:40.852Z,15.77
2019-04-21T12:18:13.968Z,15.97
2019-04-21T12:20:47.348Z,15.71
2019-04-21T12:23:20.456Z,16.02
2019-04-21T12:25:52.715Z,16.33
2019-04-21T12:28:25.897Z,15.66
2019-04-21T12:30:58.023Z,16.21
2019-04-21T12:33:51.848Z,15.86
2019-04-21T12:36:24.217Z,15.65
2019-04-21T12:39:00.079Z,15.46
2019-04-21T12:41:30.834Z,15.53
2019-04-21T12:44:02.895Z,15.83
2019-04-21T12:46:35.992Z,15.31
2019-04-21T12:49:08.030Z,15.64
2019-04-21T12:51:40.093Z,15.46
2019-04-21T12:54:12.050Z,15.44
2019-04-21T12:56:45.303Z,15.38
2019-04-21T12:59:19.021Z,15.69
2019-04-21T13:01:51.129Z,15.28
2019-04-21T13:04:23.841Z,15.39
2019-04-21T13:06:57.277Z,15.76
2019-04-21T13:09:31.975Z,15.33
2019-04-21T13:12:04.808Z,15.72
2019-04-21T13:14:37.887Z,15.92
2019-04-21T13:17:10.143Z,15.82
2019-04-21T13:19:43.223Z,15.32
2019-04-21T13:22:16.143Z,16.65
2019-04-21T13:24:49.540Z,15.25
2019-04-21T13:27:22.632Z,16.44
2019-04-21T13:29:54.730Z,16.09
2019-04-21T13:32:26.976Z,15.87
2019-04-21T13:34:59.118Z,17.60
2019-04-21T13:37:31.150Z,16.46
2019-04-21T13:40:43.357Z,16.55
2019-04-21T13:42:59.250Z,16.45
2019-04-21T13:45:32.171Z,16.17
2019-04-21T13:48:04.543Z,16.04
2019-04-21T13:50:37.410Z,16.34
2019-04-21T13:53:09.645Z,16.44
2019-04-21T13:55:42.608Z,16.17
2019-04-21T13:58:14.792Z,16.74
2019-04-21T14:00:47.687Z,16.69
2019-04-21T14:03:21.759Z,16.84
2019-04-21T14:05:54.134Z,16.76
2019-04-21T14:08:27.350Z,17.21
2019-04-21T14:10:59.785Z,16.88
2019-04-21T14:13:32.247Z,16.52
2019-04-21T14:16:04.476Z,17.34
2019-04-21T14:18:36.710Z,17.37
2019-04-21T14:21:09.207Z,17.07
2019-04-21T14:23:47.165Z,16.31
2019-04-21T14:26:16.269Z,16.04
2019-04-21T14:28:49.244Z,16.25
2019-04-21T14:31:22.180Z,16.74
2019-04-21T14:33:54.425Z,15.82
2019-04-21T14:36:26.599Z,16.30
2019-04-21T14:38:58.777Z,16.81
2019-04-21T14:41:30.778Z,16.71
2019-04-21T14:44:02.959Z,16.89
2019-04-21T14:47:00.830Z,16.72
2019-04-21T14:50:05.122Z,16.79
2019-04-21T14:52:39.077Z,16.69
2019-04-21T14:55:18.543Z,16.92
2019-04-21T14:57:51.550Z,17.03
2019-04-21T15:00:29.052Z,16.58
2019-04-21T15:03:01.448Z,16.49
2019-04-21T15:05:33.525Z,16.49
2019-04-21T15:08:06.791Z,16.40
2019-04-21T15:10:39.026Z,16.27
2019-04-21T15:13:11.910Z,16.46
2019-04-21T15:15:44.104Z,15.86
2019-04-21T15:18:17.220Z,16.21
2019-04-21T15:20:50.569Z,16.53
2019-04-21T15:23:25.218Z,16.26
2019-04-21T15:25:56.684Z,16.20
2019-04-21T15:28:31.984Z,16.23
2019-04-21T15:31:02.959Z,16.69
2019-04-21T15:33:35.146Z,16.47
2019-04-21T15:36:07.302Z,16.19
2019-04-21T15:38:40.161Z,16.94
2019-04-21T15:41:12.703Z,16.92
2019-04-21T15:43:44.839Z,16.48
2019-04-21T15:46:16.783Z,16.93
2019-04-21T15:48:48.902Z,16.76
2019-04-21T15:51:21.966Z,16.68
2019-04-21T15:53:55.540Z,16.96
2019-04-21T15:56:44.839Z,16.72
2019-04-21T15:59:24.457Z,16.75
2019-04-21T16:02:19.161Z,17.05
2019-04-21T16:04:52.644Z,16.78
2019-04-21T16:07:24.835Z,16.70
2019-04-21T16:09:57.708Z,16.64
2019-04-21T16:12:29.961Z,16.50
2019-04-21T16:15:02.928Z,16.99
2019-04-21T16:17:35.394Z,16.81
2019-04-21T16:20:10.162Z,16.97
2019-04-21T16:22:42.411Z,16.80
2019-04-21T16:25:15.062Z,17.35
2019-04-21T16:27:47.690Z,16.75
2019-04-21T16:30:21.570Z,17.08
2019-04-21T16:32:54.400Z,16.69
2019-04-21T16:35:26.778Z,17.15
2019-04-21T16:38:00.785Z,17.21
2019-04-21T16:40:43.205Z,16.91
2019-04-21T16:43:08.084Z,16.93
2019-04-21T16:45:42.861Z,17.08
2019-04-21T16:48:17.007Z,16.60
2019-04-21T16:50:49.814Z,16.36
2019-04-21T16:53:35.344Z,16.95
2019-04-21T16:56:13.125Z,17.07
2019-04-21T16:58:48.401Z,17.00
2019-04-21T17:01:29.349Z,16.95
2019-04-21T17:04:00.534Z,17.14
2019-04-21T17:06:33.633Z,17.24
2019-04-21T17:09:06.219Z,17.42
2019-04-21T17:11:41.520Z,17.49
2019-04-21T17:14:32.934Z,17.37
2019-04-21T17:17:14.573Z,17.10
2019-04-21T17:19:27.779Z,17.25
2019-04-21T17:21:57.528Z,17.21
2019-04-21T17:24:30.610Z,17.18
2019-04-21T17:27:02.992Z,17.31
2019-04-21T17:29:35.045Z,17.57
2019-04-21T17:32:09.352Z,17.89
2019-04-21T17:34:41.438Z,18.02
2019-04-21T17:37:13.421Z,18.13
2019-04-21T17:39:46.829Z,18.34
2019-04-21T17:42:32.537Z,18.30
2019-04-21T17:44:53.063Z,18.66
2019-04-21T17:47:34.761Z,18.60
2019-04-21T17:50:35.752Z,18.68
2019-04-21T17:53:12.406Z,19.03
2019-04-21T17:55:54.112Z,19.21
2019-04-21T17:58:34.210Z,19.27
2019-04-21T18:03:53.620Z,19.96
2019-04-21T18:06:14.370Z,20.69
2019-04-21T18:08:55.204Z,21.50
2019-04-21T18:11:27.916Z,21.55
2019-04-21T18:13:47.181Z,22.16
2019-04-21T18:16:28.548Z,22.33
2019-04-21T18:18:53.297Z,23.01
2019-04-21T18:21:34.746Z,24.14
2019-04-21T18:24:15.403Z,25.07
2019-04-21T18:26:52.122Z,25.21
2019-04-21T18:29:18.520Z,25.82
2019-04-21T18:31:52.734Z,26.44
2019-04-21T18:35:05.892Z,26.48
2019-04-21T18:38:05.743Z,26.12
2019-04-21T18:40:31.736Z,26.51
2019-04-21T18:43:43.780Z,26.62
2019-04-21T18:46:13.595Z,27.21
2019-04-21T18:48:38.870Z,28.25
2019-04-21T18:51:35.950Z,28.40
2019-04-21T18:54:22.637Z,29.31
2019-04-21T18:56:35.836Z,29.27
2019-04-21T18:59:08.979Z,29.02
2019-04-21T19:01:51.437Z,29.25
2019-04-21T19:04:20.536Z,29.87
2019-04-21T19:07:02.686Z,30.16
2019-04-21T19:10:02.365Z,30.01
2019-04-21T19:12:16.721Z,30.54
2019-04-21T19:14:45.994Z,30.78
2019-04-21T19:20:02.711Z,31.69
2019-04-21T19:22:34.467Z,31.40
2019-04-21T19:25:08.543Z,31.65
2019-04-21T19:27:38.326Z,32.10
2019-04-21T19:30:20.427Z,31.95
2019-04-21T19:32:45.700Z,32.10
2019-04-21T19:35:05.191Z,33.03
2019-04-21T19:37:45.226Z,32.63
2019-04-21T19:40:31.463Z,32.27
2019-04-21T19:42:55.766Z,32.60
2019-04-21T19:45:34.204Z,32.64
2019-04-21T19:48:13.275Z,32.85
2019-04-21T19:50:46.995Z,33.19
2019-04-21T19:53:19.831Z,32.94
2019-04-21T19:55:36.264Z,32.69
2019-04-21T19:58:08.516Z,33.12
2019-04-21T20:00:40.753Z,33.09
2019-04-21T20:03:14.484Z,32.92
2019-04-21T20:05:54.639Z,32.97
2019-04-21T20:08:36.231Z,32.86
2019-04-21T20:11:15.859Z,33.35
2019-04-21T20:14:13.834Z,33.96
2019-04-21T20:16:27.086Z,34.12
2019-04-21T20:18:44.331Z,34.24
2019-04-21T20:21:12.142Z,34.46
2019-04-21T20:23:45.143Z,34.56
2019-04-21T20:26:21.997Z,35.03
2019-04-21T20:29:05.534Z,35.39
2019-04-21T20:31:43.006Z,35.85
2019-04-21T20:34:21.180Z,36.09
2019-04-21T20:36:59.626Z,36.20
2019-04-21T20:39:13.863Z,36.47
2019-04-21T20:41:55.052Z,36.70
2019-04-21T20:44:38.743Z,37.10
2019-04-21T20:47:03.554Z,37.20
2019-04-21T20:49:35.110Z,37.47
2019-04-21T20:52:18.950Z,37.59
2019-04-21T20:54:49.327Z,37.74
2019-04-21T20:57:25.999Z,37.81
2019-04-21T20:59:58.031Z,37.99
2019-04-21T21:02:41.172Z,38.52
2019-04-21T21:05:00.597Z,38.88
2019-04-21T21:07:49.216Z,39.03
2019-04-21T21:10:19.482Z,38.57
2019-04-21T21:12:57.592Z,38.97
2019-04-21T21:15:19.786Z,39.10
2019-04-21T21:18:07.287Z,38.74
2019-04-21T21:20:32.490Z,38.96
2019-04-21T21:23:02.840Z,39.24
2019-04-21T21:25:44.644Z,38.93
2019-04-21T21:28:04.563Z,38.79
2019-04-21T21:30:41.035Z,38.73
2019-04-21T21:33:22.830Z,38.98
2019-04-21T21:35:52.287Z,39.55
2019-04-21T21:38:30.789Z,39.78
2019-04-21T21:40:58.755Z,40.03
2019-04-21T21:43:23.228Z,40.32
2019-04-21T21:45:58.992Z,40.45
2019-04-21T21:48:43.399Z,40.59
2019-04-21T21:51:11.079Z,41.11
2019-04-21T21:53:38.165Z,40.75
2019-04-21T21:56:10.834Z,41.46
2019-04-21T21:58:46.139Z,41.46
2019-04-21T22:01:21.746Z,42.14
2019-04-21T22:04:01.672Z,41.90
2019-04-21T22:06:36.299Z,41.73
2019-04-21T22:09:00.659Z,41.89
2019-04-21T22:11:33.863Z,41.99
2019-04-21T22:14:09.591Z,42.18
2019-04-21T22:16:49.448Z,42.71
2019-04-21T22:19:32.522Z,43.36
2019-04-21T22:22:06.662Z,42.90
2019-04-21T22:24:39.914Z,42.63
2019-04-21T22:26:56.859Z,42.80
2019-04-21T22:29:38.084Z,43.02
2019-04-21T22:32:10.233Z,43.19
2019-04-21T22:34:46.955Z,43.92
2019-04-21T22:37:28.959Z,43.81
2019-04-21T22:40:00.769Z,43.65
2019-04-21T22:42:26.594Z,44.52
2019-04-21T22:44:54.528Z,44.46
2019-04-21T22:47:32.148Z,44.92
2019-04-21T22:50:00.525Z,43.99
2019-04-21T22:52:33.755Z,44.59
2019-04-21T22:55:10.960Z,45.02
2019-04-21T22:57:47.830Z,45.32
2019-04-21T23:00:18.333Z,45.54
2019-04-21T23:02:52.652Z,45.83
2019-04-21T23:05:30.256Z,45.70
2019-04-21T23:08:01.464Z,46.03
2019-04-21T23:10:31.547Z,46.17
2019-04-21T23:13:09.375Z,46.23
2019-04-21T23:15:44.318Z,45.84
2019-04-21T23:18:25.942Z,46.18
2019-04-21T23:21:03.412Z,46.38
2019-04-21T23:23:39.680Z,46.75
2019-04-21T23:26:14.477Z,46.95
2019-04-21T23:28:45.504Z,48.06
2019-04-21T23:31:26.138Z,48.49
2019-04-21T23:33:34.735Z,48.92
2019-04-21T23:36:13.086Z,48.48
2019-04-21T23:38:44.105Z,48.36
2019-04-21T23:41:15.306Z,47.87
2019-04-21T23:43:53.149Z,47.66
2019-04-21T23:46:27.756Z,47.62
2019-04-21T23:49:09.359Z,47.35
2019-04-21T23:51:40.771Z,47.75
2019-04-21T23:54:03.022Z,48.38
2019-04-21T23:56:39.549Z,47.47
2019-04-21T23:59:11.560Z,47.01
